TGH weather

Tongoa Airport
Tongoa Island, Shefa, Vanuatu

Public forecast

Using degrees Celsius for public forecast. Weather courtesy of forecast.io.

METAR (pilot weather report)

Report is more than 6 hours old.

Closest report is Lamap Airport, 48.9 nm (90.5 km) WNW. Retrieved 2019/05/29 19:00 UTC (20 days ago):

NVSL 291900Z NLI

TAF (pilot weather forecast)

Forecast is more than 12 hours old.

Closest forecast is Lamap Airport, 48.9 nm (90.5 km) WNW. Retrieved 2019/06/18 00:41 UTC (1 day ago):

TAF NVSL 182220Z 1900/1924 11014KT 9999 SCT020 PROB30 INTER 1903/1906 9000 -SHRA BKN018 PROB30 INTER 1912/1918 9000 SHRA BKN018